createdAt,value
2023-05-10T00:01:00.907Z,89.0422
2023-05-10T00:02:04.160Z,88.9605
2023-05-10T00:03:07.643Z,88.8764
2023-05-10T00:04:10.870Z,88.7956
2023-05-10T00:05:14.129Z,88.6965
2023-05-10T00:06:15.490Z,88.6124
2023-05-10T00:07:18.723Z,88.5618
2023-05-10T00:08:22.157Z,88.5137
2023-05-10T00:09:25.376Z,88.4918
2023-05-10T00:10:28.616Z,88.4353
2023-05-10T00:11:32.021Z,88.3977
2023-05-10T00:12:35.228Z,88.3782
2023-05-10T00:13:38.892Z,88.3595
2023-05-10T00:14:42.086Z,88.3461
2023-05-10T00:15:45.311Z,88.3311
2023-05-10T00:16:48.690Z,88.3261
2023-05-10T00:17:51.938Z,88.3245
2023-05-10T00:18:55.383Z,88.3155
2023-05-10T00:19:58.609Z,88.3007
2023-05-10T00:21:02.058Z,88.2940
2023-05-10T00:22:05.292Z,88.2941
2023-05-10T00:23:08.538Z,88.2880
2023-05-10T00:24:11.972Z,88.2876
2023-05-10T00:25:15.203Z,88.2866
2023-05-10T00:26:18.622Z,88.2973
2023-05-10T00:27:21.851Z,88.2981
2023-05-10T00:28:25.078Z,88.3004
2023-05-10T00:29:28.316Z,88.3278
2023-05-10T00:30:31.543Z,88.3229
2023-05-10T00:31:35.117Z,88.3202
2023-05-10T00:32:38.354Z,88.3188
2023-05-10T00:33:41.593Z,88.3245
2023-05-10T00:34:44.829Z,88.3314
2023-05-10T00:35:48.035Z,88.3457
2023-05-10T00:36:51.309Z,88.3764
2023-05-10T00:37:54.494Z,88.3925
2023-05-10T00:38:55.774Z,88.4105
2023-05-10T00:39:59.052Z,88.4426
2023-05-10T00:41:02.646Z,88.4568
2023-05-10T00:42:05.901Z,88.4800
2023-05-10T00:43:09.117Z,88.5106
2023-05-10T00:44:09.630Z,88.5359
2023-05-10T00:45:12.956Z,88.5391
2023-05-10T00:46:16.604Z,88.5412
2023-05-10T00:47:19.897Z,88.5472
2023-05-10T00:48:23.141Z,88.5590
2023-05-10T00:49:26.397Z,88.5727
2023-05-10T00:50:29.617Z,88.5922
2023-05-10T00:51:32.882Z,88.6081
2023-05-10T00:52:36.124Z,88.6362
2023-05-10T00:53:39.378Z,88.6595
2023-05-10T00:54:42.611Z,88.6777
2023-05-10T00:55:45.835Z,88.7156
2023-05-10T00:56:49.071Z,88.7472
2023-05-10T00:57:52.294Z,88.7630
2023-05-10T00:58:55.743Z,88.7873
2023-05-10T00:59:58.947Z,88.8220
2023-05-10T01:01:02.207Z,88.8367
2023-05-10T01:02:05.791Z,88.8420
2023-05-10T01:03:09.151Z,88.8473
2023-05-10T01:04:12.480Z,88.8527
2023-05-10T01:05:15.749Z,88.8548
2023-05-10T01:06:19.236Z,88.8568
2023-05-10T01:07:22.488Z,88.8574
2023-05-10T01:08:25.709Z,88.8598
2023-05-10T01:09:28.949Z,88.8634
2023-05-10T01:10:32.168Z,88.8704
2023-05-10T01:11:35.687Z,88.8810
2023-05-10T01:12:39.115Z,88.8877
2023-05-10T01:13:42.338Z,88.8826
2023-05-10T01:14:45.562Z,88.8826
2023-05-10T01:15:48.791Z,88.9212
2023-05-10T01:16:51.984Z,88.9628
2023-05-10T01:17:55.220Z,88.9755
2023-05-10T01:18:58.687Z,88.9958
2023-05-10T01:20:01.923Z,89.0267
2023-05-10T01:21:05.110Z,89.0462
2023-05-10T01:22:08.610Z,89.0835
2023-05-10T01:23:11.844Z,89.1410
2023-05-10T01:24:15.034Z,89.1648
2023-05-10T01:25:18.262Z,89.1982
2023-05-10T01:26:21.462Z,89.2383
2023-05-10T01:27:24.688Z,89.2800
2023-05-10T01:28:27.926Z,89.3087
2023-05-10T01:29:31.408Z,89.3223
2023-05-10T01:30:34.616Z,89.3505
2023-05-10T01:31:37.874Z,89.3479
2023-05-10T01:32:41.069Z,89.3450
2023-05-10T01:33:44.320Z,89.3563
2023-05-10T01:34:47.768Z,89.3506
2023-05-10T01:35:51.336Z,89.3500
2023-05-10T01:36:54.549Z,89.3459
2023-05-10T01:37:57.811Z,89.3463
2023-05-10T01:39:01.301Z,89.3535
2023-05-10T01:40:04.566Z,89.3574
2023-05-10T01:41:07.770Z,89.3593
2023-05-10T01:42:10.980Z,89.3616
2023-05-10T01:43:14.226Z,89.3599
2023-05-10T01:44:17.674Z,89.3708
2023-05-10T01:45:20.876Z,89.3676
2023-05-10T01:46:24.139Z,89.3564
2023-05-10T01:47:27.367Z,89.3572
2023-05-10T01:48:30.588Z,89.3782
2023-05-10T01:49:34.053Z,89.3682
2023-05-10T01:50:37.256Z,89.3639
2023-05-10T01:51:41.470Z,89.3532
2023-05-10T01:52:41.005Z,89.3436
2023-05-10T01:53:44.231Z,89.3288
2023-05-10T01:54:47.481Z,89.3126
2023-05-10T01:55:50.697Z,89.3015
2023-05-10T01:56:54.140Z,89.2737
2023-05-10T01:57:57.359Z,89.2475
2023-05-10T01:59:00.548Z,89.2303
2023-05-10T02:00:03.772Z,89.2184
2023-05-10T02:01:07.093Z,89.2135
2023-05-10T02:02:10.308Z,89.1921
2023-05-10T02:03:13.564Z,89.1765
2023-05-10T02:04:16.752Z,89.1729
2023-05-10T02:05:30.849Z,89.1634
2023-05-10T02:06:34.039Z,89.1998
2023-05-10T02:07:37.518Z,89.2104
2023-05-10T02:08:40.744Z,89.2160
2023-05-10T02:09:44.314Z,89.2219
2023-05-10T02:10:47.726Z,89.2253
2023-05-10T02:11:50.932Z,89.2161
2023-05-10T02:12:54.201Z,89.2105
2023-05-10T02:13:57.404Z,89.2105
2023-05-10T02:15:00.640Z,89.2110
2023-05-10T02:16:03.840Z,89.2121
2023-05-10T02:17:07.055Z,89.2334
2023-05-10T02:18:10.368Z,89.2357
2023-05-10T02:19:13.566Z,89.2421
2023-05-10T02:20:17.222Z,89.3087
2023-05-10T02:21:20.597Z,89.3476
2023-05-10T02:22:23.825Z,89.3610
2023-05-10T02:23:27.053Z,89.3698
2023-05-10T02:24:30.248Z,89.3716
2023-05-10T02:25:33.703Z,89.4086
2023-05-10T02:26:36.887Z,89.4387
2023-05-10T02:27:40.392Z,89.4672
2023-05-10T02:28:43.610Z,89.4719
2023-05-10T02:29:46.812Z,89.4767
2023-05-10T02:30:50.009Z,89.4788
2023-05-10T02:31:53.228Z,89.4884
2023-05-10T02:32:56.457Z,89.5194
2023-05-10T02:33:59.644Z,89.5294
2023-05-10T02:35:00.803Z,89.5262
2023-05-10T02:36:04.024Z,89.5127
2023-05-10T02:37:07.241Z,89.5045
2023-05-10T02:38:10.796Z,89.5035
2023-05-10T02:39:13.990Z,89.5197
2023-05-10T02:40:17.462Z,89.5339
2023-05-10T02:41:20.783Z,89.5598
2023-05-10T02:42:24.005Z,89.5788
2023-05-10T02:43:27.233Z,89.5927
2023-05-10T02:44:30.446Z,89.6145
2023-05-10T02:45:33.666Z,89.6269
2023-05-10T02:46:36.894Z,89.6389
2023-05-10T02:47:40.123Z,89.6484
2023-05-10T02:48:43.392Z,89.6536
2023-05-10T02:49:46.595Z,89.6574
2023-05-10T02:50:50.146Z,89.6568
2023-05-10T02:51:53.341Z,89.6885
2023-05-10T02:52:56.823Z,89.7049
2023-05-10T02:54:00.046Z,89.7048
2023-05-10T02:55:03.521Z,89.6977
2023-05-10T02:56:06.714Z,89.6910
2023-05-10T02:57:09.948Z,89.6807
2023-05-10T02:58:13.211Z,89.6745
2023-05-10T02:59:16.466Z,89.6649
2023-05-10T03:00:19.915Z,89.6734
2023-05-10T03:01:23.177Z,89.6901
2023-05-10T03:02:26.403Z,89.7007
2023-05-10T03:03:29.942Z,89.7006
2023-05-10T03:04:33.196Z,89.7319
2023-05-10T03:05:36.382Z,89.8035
2023-05-10T03:06:39.662Z,89.8271
2023-05-10T03:07:42.877Z,89.8328
2023-05-10T03:08:46.058Z,89.8622
2023-05-10T03:09:49.268Z,89.8721
2023-05-10T03:10:52.718Z,89.8762
2023-05-10T03:11:55.923Z,89.8771
2023-05-10T03:12:59.411Z,89.8772
2023-05-10T03:14:02.611Z,89.8865
2023-05-10T03:15:05.851Z,89.8908
2023-05-10T03:16:09.112Z,89.8977
2023-05-10T03:17:12.315Z,89.8930
2023-05-10T03:18:15.507Z,89.8950
2023-05-10T03:19:18.711Z,89.9113
2023-05-10T03:20:20.035Z,89.9325
2023-05-10T03:21:23.255Z,89.9422
2023-05-10T03:22:26.490Z,89.9427
2023-05-10T03:23:29.695Z,89.9430
2023-05-10T03:24:32.922Z,89.9414
2023-05-10T03:25:36.204Z,89.9518
2023-05-10T03:26:39.440Z,89.9721
2023-05-10T03:27:42.650Z,89.9754
2023-05-10T03:28:45.873Z,89.9826
2023-05-10T03:29:49.102Z,89.9871
2023-05-10T03:30:52.451Z,90.0350
2023-05-10T03:31:55.819Z,90.0632
2023-05-10T03:32:59.302Z,90.0738
2023-05-10T03:34:02.582Z,90.0822
2023-05-10T03:35:05.792Z,90.1098
2023-05-10T03:36:09.244Z,90.1264
2023-05-10T03:37:12.485Z,90.1272
2023-05-10T03:38:16.021Z,90.1394
2023-05-10T03:39:19.232Z,90.1448
2023-05-10T03:40:22.673Z,90.1583
2023-05-10T03:41:25.873Z,90.1717
2023-05-10T03:42:29.061Z,90.1783
2023-05-10T03:43:32.498Z,90.1958
2023-05-10T03:44:35.732Z,90.2024
2023-05-10T03:45:39.038Z,90.1937
2023-05-10T03:46:42.501Z,90.1993
2023-05-10T03:47:45.749Z,90.2071
2023-05-10T03:48:48.967Z,90.2254
2023-05-10T03:49:52.199Z,90.2356
2023-05-10T03:50:55.595Z,90.2485
2023-05-10T03:51:58.767Z,90.2632
2023-05-10T03:53:02.223Z,90.2744
2023-05-10T03:54:05.427Z,90.2785
2023-05-10T03:55:08.659Z,90.2711
2023-05-10T03:56:11.897Z,90.2577
2023-05-10T03:57:15.090Z,90.2429
2023-05-10T03:58:18.569Z,90.2473
2023-05-10T03:59:21.785Z,90.2422
2023-05-10T04:00:25.024Z,90.2392
2023-05-10T04:01:28.221Z,90.2344
2023-05-10T04:02:31.545Z,90.2342
2023-05-10T04:03:34.885Z,90.2374
2023-05-10T04:04:38.066Z,90.2438
2023-05-10T04:05:41.302Z,90.2472
2023-05-10T04:06:44.512Z,90.2832
2023-05-10T04:07:47.730Z,90.3161
2023-05-10T04:08:50.959Z,90.3442
2023-05-10T04:09:54.150Z,90.3646
2023-05-10T04:10:57.375Z,90.3810
2023-05-10T04:12:00.602Z,90.4078
2023-05-10T04:13:03.827Z,90.4526
2023-05-10T04:14:07.090Z,90.4626
2023-05-10T04:15:10.296Z,90.4693
2023-05-10T04:16:13.489Z,90.4787
2023-05-10T04:17:16.895Z,90.4896
2023-05-10T04:18:20.381Z,90.4985
2023-05-10T04:19:23.605Z,90.5053
2023-05-10T04:20:26.823Z,90.5084
2023-05-10T04:21:30.268Z,90.5098
2023-05-10T04:22:33.418Z,90.5139
2023-05-10T04:23:36.862Z,90.5134
2023-05-10T04:24:40.082Z,90.5094
2023-05-10T04:25:43.286Z,90.5127
2023-05-10T04:26:46.487Z,90.5155
2023-05-10T04:27:49.735Z,90.5119
2023-05-10T04:28:52.944Z,90.5126
2023-05-10T04:29:56.177Z,90.5095
2023-05-10T04:30:59.437Z,90.5216
2023-05-10T04:32:02.605Z,90.5259
2023-05-10T04:33:05.850Z,90.5323
2023-05-10T04:34:09.324Z,90.5281
2023-05-10T04:35:12.548Z,90.5302
2023-05-10T04:36:15.787Z,90.5296
2023-05-10T04:37:19.033Z,90.5327
2023-05-10T04:38:22.524Z,90.5352
2023-05-10T04:39:25.753Z,90.5342
2023-05-10T04:40:28.992Z,90.5340
2023-05-10T04:41:32.454Z,90.5328
2023-05-10T04:42:35.659Z,90.5315
2023-05-10T04:43:38.882Z,90.5235
2023-05-10T04:44:42.048Z,90.5223
2023-05-10T04:45:45.273Z,90.5230
2023-05-10T04:46:48.798Z,90.5182
2023-05-10T04:47:51.995Z,90.5144
2023-05-10T04:48:55.202Z,90.5142
2023-05-10T04:49:58.422Z,90.5198
2023-05-10T04:51:01.686Z,90.5250
2023-05-10T04:52:04.901Z,90.5248
2023-05-10T04:53:08.156Z,90.5218
2023-05-10T04:54:11.365Z,90.5225
2023-05-10T04:55:14.608Z,90.5178
2023-05-10T04:56:17.836Z,90.5125
2023-05-10T04:57:21.046Z,90.5039
2023-05-10T04:58:24.252Z,90.4934
2023-05-10T04:59:27.716Z,90.4750
2023-05-10T05:00:30.894Z,90.4655
2023-05-10T05:01:34.178Z,90.4624
2023-05-10T05:02:37.483Z,90.4496
2023-05-10T05:03:40.842Z,90.4418
2023-05-10T05:04:44.058Z,90.4364
2023-05-10T05:05:47.285Z,90.4207
2023-05-10T05:06:53.662Z,90.4140
2023-05-10T05:07:53.374Z,90.3868
2023-05-10T05:08:56.639Z,90.3693
2023-05-10T05:09:59.874Z,90.3582
2023-05-10T05:11:03.066Z,90.3467
2023-05-10T05:12:06.294Z,90.3319
2023-05-10T05:13:09.500Z,90.3249
2023-05-10T05:14:12.670Z,90.3190
2023-05-10T05:15:15.907Z,90.3073
2023-05-10T05:16:19.170Z,90.2907
2023-05-10T05:17:22.377Z,90.2744
2023-05-10T05:18:25.599Z,90.2615
2023-05-10T05:19:29.071Z,90.2455
2023-05-10T05:20:32.292Z,90.2264
2023-05-10T05:21:35.490Z,90.2004
2023-05-10T05:22:38.701Z,90.1655
2023-05-10T05:23:41.936Z,90.1437
2023-05-10T05:24:45.137Z,90.1116
2023-05-10T05:25:48.364Z,90.0748
2023-05-10T05:26:51.616Z,90.0421
2023-05-10T05:27:54.837Z,90.0004
2023-05-10T05:28:58.077Z,89.9812
2023-05-10T05:30:01.298Z,89.9801
2023-05-10T05:31:04.473Z,89.9631
2023-05-10T05:32:07.756Z,89.9194
2023-05-10T05:33:11.029Z,89.8999
2023-05-10T05:34:14.211Z,89.8878
2023-05-10T05:35:17.572Z,89.7988
2023-05-10T05:36:20.925Z,89.7405
2023-05-10T05:37:24.154Z,89.7308
2023-05-10T05:38:27.361Z,89.7242
2023-05-10T05:39:30.802Z,89.7154
2023-05-10T05:40:34.003Z,89.6953
2023-05-10T05:41:37.198Z,89.6829
2023-05-10T05:42:40.445Z,89.6687
2023-05-10T05:43:43.690Z,89.6688
2023-05-10T05:44:47.062Z,89.6507
2023-05-10T05:45:50.403Z,89.5947
2023-05-10T05:46:53.614Z,89.5784
2023-05-10T05:47:56.858Z,89.5733
2023-05-10T05:49:00.034Z,89.5719
2023-05-10T05:50:03.316Z,89.5543
2023-05-10T05:51:07.406Z,89.5421
2023-05-10T05:52:07.271Z,89.5366
2023-05-10T05:53:10.492Z,89.5209
2023-05-10T05:54:13.671Z,89.4928
2023-05-10T05:55:17.213Z,89.4454
2023-05-10T05:56:20.492Z,89.4059
2023-05-10T05:57:23.713Z,89.3695
2023-05-10T05:58:26.948Z,89.3266
2023-05-10T05:59:30.202Z,89.3002
2023-05-10T06:00:33.397Z,89.2772
2023-05-10T06:01:36.614Z,89.2437
2023-05-10T06:02:40.010Z,89.1432
2023-05-10T06:03:43.405Z,89.0478
2023-05-10T06:04:46.616Z,88.9318
2023-05-10T06:05:49.872Z,88.8495
2023-05-10T06:06:53.093Z,88.7696
2023-05-10T06:07:56.328Z,88.6942
2023-05-10T06:08:59.576Z,88.4897
2023-05-10T06:10:02.820Z,88.3058
2023-05-10T06:11:05.994Z,88.1634
2023-05-10T06:12:09.547Z,88.0392
2023-05-10T06:13:12.803Z,87.8630
2023-05-10T06:14:16.296Z,87.7729
2023-05-10T06:15:19.504Z,87.6767
2023-05-10T06:16:22.776Z,87.6162
2023-05-10T06:17:26.007Z,87.5746
2023-05-10T06:18:29.235Z,87.4783
2023-05-10T06:19:32.586Z,87.3605
2023-05-10T06:20:35.800Z,87.2576
2023-05-10T06:21:39.036Z,87.2225
2023-05-10T06:22:42.240Z,87.0545
2023-05-10T06:23:45.467Z,86.7086
2023-05-10T06:24:48.709Z,86.4379
2023-05-10T06:25:51.952Z,86.0924
2023-05-10T06:26:55.189Z,85.4717
2023-05-10T06:27:58.547Z,85.1832
2023-05-10T06:29:01.778Z,85.1488
2023-05-10T06:30:12.339Z,85.0970
2023-05-10T06:31:06.812Z,84.9926
2023-05-10T06:32:10.045Z,84.6130
2023-05-10T06:33:13.358Z,84.3021
2023-05-10T06:34:16.603Z,84.3636
2023-05-10T06:35:20.209Z,84.3533
2023-05-10T06:36:23.803Z,83.8638
2023-05-10T06:37:27.075Z,83.1375
2023-05-10T06:38:30.340Z,83.0741
2023-05-10T06:39:33.805Z,83.1424
2023-05-10T06:40:37.053Z,83.2121
2023-05-10T06:41:40.340Z,82.9009
2023-05-10T06:42:43.588Z,82.7740
2023-05-10T06:43:46.815Z,82.8335
2023-05-10T06:44:50.099Z,82.8278
2023-05-10T06:45:53.412Z,82.4946
2023-05-10T06:46:56.672Z,82.0275
2023-05-10T06:47:59.949Z,82.1482
2023-05-10T06:49:03.202Z,82.3466
2023-05-10T06:50:06.458Z,82.4971
2023-05-10T06:51:09.704Z,82.5376
2023-05-10T06:52:13.183Z,82.1962
2023-05-10T06:53:16.709Z,82.1899
2023-05-10T06:54:19.933Z,82.2316
2023-05-10T06:55:23.152Z,82.1180
2023-05-10T06:56:26.380Z,81.8233
2023-05-10T06:57:31.744Z,81.8089
2023-05-10T06:58:31.784Z,81.6968
2023-05-10T06:59:35.167Z,81.7238
2023-05-10T07:00:38.540Z,81.5699
2023-05-10T07:01:41.807Z,81.3627
2023-05-10T07:02:45.037Z,81.5036
2023-05-10T07:03:48.296Z,81.4706
2023-05-10T07:04:51.606Z,81.4732
2023-05-10T07:05:54.808Z,81.3929
2023-05-10T07:06:58.291Z,81.3322
2023-05-10T07:08:01.527Z,81.2236
2023-05-10T07:09:04.802Z,81.0494
2023-05-10T07:10:08.261Z,80.8716
2023-05-10T07:11:11.506Z,80.8008
2023-05-10T07:12:15.868Z,80.7068
2023-05-10T07:13:15.752Z,80.5666
2023-05-10T07:14:19.317Z,80.5737
2023-05-10T07:15:22.572Z,80.5687
2023-05-10T07:16:25.826Z,80.3922
2023-05-10T07:17:29.144Z,80.2142
2023-05-10T07:18:32.493Z,79.5890
2023-05-10T07:19:35.710Z,79.2911
2023-05-10T07:20:38.942Z,79.1555
2023-05-10T07:21:42.186Z,79.0384
2023-05-10T07:22:45.687Z,78.9437
2023-05-10T07:23:48.918Z,78.9898
2023-05-10T07:24:52.176Z,78.7175
2023-05-10T07:25:55.406Z,78.8246
2023-05-10T07:26:58.921Z,78.8955
2023-05-10T07:28:02.147Z,78.9513
2023-05-10T07:29:05.406Z,78.9849
2023-05-10T07:30:08.881Z,78.9851
2023-05-10T07:31:12.151Z,78.9682
2023-05-10T07:32:15.455Z,78.5613
2023-05-10T07:33:18.852Z,78.3265
2023-05-10T07:34:22.114Z,77.9251
2023-05-10T07:35:25.646Z,77.3163
2023-05-10T07:36:28.904Z,77.1648
2023-05-10T07:37:32.162Z,77.1973
2023-05-10T07:38:35.413Z,77.3594
2023-05-10T07:39:38.733Z,77.0964
2023-05-10T07:40:41.968Z,76.8032
2023-05-10T07:41:45.291Z,76.5766
2023-05-10T07:42:48.488Z,76.8225
2023-05-10T07:43:51.747Z,77.1127
2023-05-10T07:44:54.995Z,77.3505
2023-05-10T07:45:58.238Z,77.5755
2023-05-10T07:47:01.478Z,77.7424
2023-05-10T07:48:04.748Z,77.8688
2023-05-10T07:49:08.016Z,77.9997
2023-05-10T07:50:11.260Z,78.0885
2023-05-10T07:51:14.557Z,78.0848
2023-05-10T07:52:17.833Z,77.9507
2023-05-10T07:53:21.139Z,77.9775
2023-05-10T07:54:24.398Z,77.9741
2023-05-10T07:55:27.643Z,77.7593
2023-05-10T07:56:30.866Z,77.8027
2023-05-10T07:57:34.376Z,77.7216
2023-05-10T07:58:37.644Z,77.0774
2023-05-10T07:59:40.882Z,76.5746
2023-05-10T08:00:44.122Z,75.6691
2023-05-10T08:01:47.380Z,75.6387
2023-05-10T08:02:50.967Z,75.7238
2023-05-10T08:03:54.372Z,75.8776
2023-05-10T08:04:57.784Z,75.9579
2023-05-10T08:06:01.028Z,75.4811
2023-05-10T08:07:04.309Z,74.7356
2023-05-10T08:08:07.543Z,74.7657
2023-05-10T08:09:10.791Z,74.2324
2023-05-10T08:10:14.299Z,73.5284
2023-05-10T08:11:17.532Z,73.7465
2023-05-10T08:12:21.066Z,73.8949
2023-05-10T08:13:24.289Z,73.6368
2023-05-10T08:14:27.557Z,72.9510
2023-05-10T08:15:30.819Z,72.6073
2023-05-10T08:16:34.141Z,72.7662
2023-05-10T08:17:37.399Z,72.9272
2023-05-10T08:18:40.726Z,72.9796
2023-05-10T08:19:43.938Z,72.8842
2023-05-10T08:20:47.162Z,72.5568
2023-05-10T08:21:50.471Z,72.4167
2023-05-10T08:22:53.720Z,71.4476
2023-05-10T08:23:56.972Z,71.5620
2023-05-10T08:25:00.195Z,71.7100
2023-05-10T08:26:03.458Z,71.6343
2023-05-10T08:27:06.735Z,71.5158
2023-05-10T08:28:11.335Z,71.0148
2023-05-10T08:29:11.472Z,70.7353
2023-05-10T08:30:14.731Z,70.7130
2023-05-10T08:31:18.008Z,70.6214
2023-05-10T08:32:21.222Z,70.5526
2023-05-10T08:33:24.471Z,70.5193
2023-05-10T08:34:27.878Z,68.6512
2023-05-10T08:35:31.126Z,67.2877
2023-05-10T08:36:34.395Z,67.0916
2023-05-10T08:37:37.635Z,67.1611
2023-05-10T08:38:40.845Z,65.9875
2023-05-10T08:39:44.372Z,65.8661
2023-05-10T08:40:47.591Z,66.4453
2023-05-10T08:41:50.829Z,66.7149
2023-05-10T08:42:54.115Z,66.9821
2023-05-10T08:43:57.394Z,67.2090
2023-05-10T08:45:00.955Z,67.3120
2023-05-10T08:46:04.284Z,67.5595
2023-05-10T08:47:07.730Z,67.7941
2023-05-10T08:48:11.157Z,67.9896
2023-05-10T08:49:14.371Z,68.0684
2023-05-10T08:50:17.639Z,67.7402
2023-05-10T08:51:20.887Z,65.8679
2023-05-10T08:52:24.154Z,65.7826
2023-05-10T08:53:27.391Z,65.8115
2023-05-10T08:54:30.657Z,64.4220
2023-05-10T08:55:34.139Z,64.1765
2023-05-10T08:56:37.366Z,64.4713
2023-05-10T08:57:40.623Z,64.5697
2023-05-10T08:58:43.899Z,63.8338
2023-05-10T08:59:47.103Z,62.7742
2023-05-10T09:00:50.358Z,63.0064
2023-05-10T09:01:53.569Z,63.4687
2023-05-10T09:02:56.846Z,63.8306
2023-05-10T09:04:00.200Z,63.2044
2023-05-10T09:05:03.771Z,62.9855
2023-05-10T09:06:07.065Z,62.1206
2023-05-10T09:07:10.293Z,62.0516
2023-05-10T09:08:13.568Z,62.0875
2023-05-10T09:09:16.851Z,62.3484
2023-05-10T09:10:20.095Z,62.9142
2023-05-10T09:11:23.348Z,63.3262
2023-05-10T09:12:26.568Z,63.6188
2023-05-10T09:13:29.832Z,63.9208
2023-05-10T09:14:33.073Z,63.8657
2023-05-10T09:15:36.570Z,63.7626
2023-05-10T09:16:39.973Z,64.1748
2023-05-10T09:17:43.343Z,64.5444
2023-05-10T09:18:46.655Z,64.7685
2023-05-10T09:19:49.900Z,64.9982
2023-05-10T09:20:53.180Z,65.2266
2023-05-10T09:21:56.393Z,65.4573
2023-05-10T09:22:59.874Z,65.6659
2023-05-10T09:24:03.148Z,65.8540
2023-05-10T09:25:06.391Z,66.0174
2023-05-10T09:26:09.667Z,66.1856
2023-05-10T09:27:12.922Z,66.2785
2023-05-10T09:28:16.492Z,66.3001
2023-05-10T09:29:19.745Z,66.2819
2023-05-10T09:30:23.019Z,66.2468
2023-05-10T09:31:26.332Z,66.2572
2023-05-10T09:32:29.562Z,65.8839
2023-05-10T09:33:32.801Z,64.7828
2023-05-10T09:34:36.048Z,64.7371
2023-05-10T09:35:39.528Z,64.8374
2023-05-10T09:36:42.796Z,64.9454
2023-05-10T09:37:46.632Z,65.0006
2023-05-10T09:38:46.202Z,64.9686
2023-05-10T09:39:49.455Z,64.9585
2023-05-10T09:40:52.728Z,65.0865
2023-05-10T09:41:55.960Z,65.1739
2023-05-10T09:42:59.429Z,65.2594
2023-05-10T09:44:02.682Z,65.3486
2023-05-10T09:45:05.952Z,65.5197
2023-05-10T09:46:09.359Z,65.6173
2023-05-10T09:47:12.612Z,65.7150
2023-05-10T09:48:15.849Z,65.9077
2023-05-10T09:49:19.105Z,66.0758
2023-05-10T09:50:22.387Z,66.1265
2023-05-10T09:51:25.610Z,65.9894
2023-05-10T09:52:28.885Z,66.0374
2023-05-10T09:53:32.275Z,66.1267
2023-05-10T09:54:35.491Z,66.2307
2023-05-10T09:55:38.742Z,66.3111
2023-05-10T09:56:42.015Z,66.3142
2023-05-10T09:57:45.245Z,66.2798
2023-05-10T09:58:48.509Z,66.1891
2023-05-10T09:59:51.732Z,66.0406
2023-05-10T10:00:55.035Z,65.8344
2023-05-10T10:01:58.360Z,65.5717
2023-05-10T10:03:01.585Z,64.5470
2023-05-10T10:04:04.836Z,63.8401
2023-05-10T10:05:08.240Z,63.8180
2023-05-10T10:06:22.700Z,63.7956
2023-05-10T10:07:13.302Z,63.7925
2023-05-10T10:08:16.814Z,63.8288
2023-05-10T10:09:20.058Z,63.7799
2023-05-10T10:10:23.301Z,63.6643
2023-05-10T10:11:26.564Z,63.4603
2023-05-10T10:12:29.805Z,63.1836
2023-05-10T10:13:33.286Z,63.0334
2023-05-10T10:14:36.551Z,62.9278
2023-05-10T10:15:39.778Z,62.7031
2023-05-10T10:16:55.514Z,62.2464
2023-05-10T10:17:44.878Z,61.8382
2023-05-10T10:18:48.167Z,61.6057
2023-05-10T10:19:51.442Z,61.4400
2023-05-10T10:20:52.793Z,61.0282
2023-05-10T10:21:56.063Z,60.7760
2023-05-10T10:22:59.273Z,60.4795
2023-05-10T10:24:02.571Z,60.2609
2023-05-10T10:25:05.839Z,60.0500
2023-05-10T10:26:09.384Z,59.7710
2023-05-10T10:27:12.601Z,59.5608
2023-05-10T10:28:15.869Z,59.1756
2023-05-10T10:29:19.121Z,58.8982
2023-05-10T10:30:22.714Z,58.8195
2023-05-10T10:31:25.988Z,58.6957
2023-05-10T10:32:29.277Z,58.5292
2023-05-10T10:33:32.629Z,58.1586
2023-05-10T10:34:35.888Z,57.7093
2023-05-10T10:35:39.142Z,57.5248
2023-05-10T10:36:42.410Z,57.1971
2023-05-10T10:37:45.642Z,56.7861
2023-05-10T10:38:48.876Z,56.5862
2023-05-10T10:39:52.125Z,56.4778
2023-05-10T10:40:55.383Z,56.0702
2023-05-10T10:41:58.620Z,53.5691
2023-05-10T10:43:02.113Z,53.5192
2023-05-10T10:44:05.348Z,53.8778
2023-05-10T10:45:08.600Z,53.8221
2023-05-10T10:46:11.899Z,53.7563
2023-05-10T10:47:15.168Z,53.7800
2023-05-10T10:48:18.454Z,53.2718
2023-05-10T10:49:21.700Z,53.1897
2023-05-10T10:50:24.952Z,52.0250
2023-05-10T10:51:28.206Z,50.3705
2023-05-10T10:52:31.477Z,50.7366
2023-05-10T10:53:35.067Z,51.0668
2023-05-10T10:54:38.328Z,51.3048
2023-05-10T10:55:41.573Z,50.9464
2023-05-10T10:56:44.836Z,50.8780
2023-05-10T10:57:48.108Z,49.7742
2023-05-10T10:58:51.573Z,47.3250
2023-05-10T10:59:54.803Z,47.6661
2023-05-10T11:00:58.067Z,47.8019
2023-05-10T11:02:01.272Z,48.1006
2023-05-10T11:03:04.539Z,46.7167
2023-05-10T11:04:08.535Z,47.0037
2023-05-10T11:05:08.093Z,46.8662
2023-05-10T11:06:11.344Z,47.4361
2023-05-10T11:07:14.598Z,48.3179
2023-05-10T11:08:15.654Z,48.3748
2023-05-10T11:09:18.919Z,49.1108
2023-05-10T11:10:22.153Z,49.7621
2023-05-10T11:11:25.394Z,48.5425
2023-05-10T11:12:28.673Z,48.6243
2023-05-10T11:13:31.970Z,49.2277
2023-05-10T11:14:35.242Z,50.2825
2023-05-10T11:15:38.491Z,51.0594
2023-05-10T11:16:41.764Z,51.5698
2023-05-10T11:17:45.017Z,51.9441
2023-05-10T11:18:50.271Z,52.3028
2023-05-10T11:19:49.849Z,52.6725
2023-05-10T11:20:53.335Z,53.1002
2023-05-10T11:21:56.602Z,53.5082
2023-05-10T11:22:59.874Z,53.8843
2023-05-10T11:24:03.119Z,54.1812
2023-05-10T11:25:06.366Z,54.4116
2023-05-10T11:26:09.610Z,54.6573
2023-05-10T11:27:12.876Z,54.8136
2023-05-10T11:28:16.158Z,54.9077
2023-05-10T11:29:19.380Z,54.9105
2023-05-10T11:30:22.648Z,54.3569
2023-05-10T11:31:25.976Z,54.5582
2023-05-10T11:32:29.226Z,54.6689
2023-05-10T11:33:32.530Z,54.6642
2023-05-10T11:34:35.823Z,54.6086
2023-05-10T11:35:40.997Z,54.4763
2023-05-10T11:36:41.957Z,54.3068
2023-05-10T11:37:45.181Z,54.0873
2023-05-10T11:38:48.441Z,53.9415
2023-05-10T11:39:51.709Z,53.6553
2023-05-10T11:40:54.970Z,51.4686
2023-05-10T11:41:58.262Z,50.3464
2023-05-10T11:43:01.513Z,50.7379
2023-05-10T11:44:04.735Z,50.6481
2023-05-10T11:45:08.006Z,50.8643
2023-05-10T11:46:11.534Z,49.6740
2023-05-10T11:47:14.789Z,48.4703
2023-05-10T11:48:18.049Z,49.1075
2023-05-10T11:49:21.284Z,49.6089
2023-05-10T11:50:24.530Z,50.0579
2023-05-10T11:51:28.031Z,50.0361
2023-05-10T11:52:31.235Z,50.1563
2023-05-10T11:53:34.493Z,49.9739
2023-05-10T11:54:37.754Z,49.6641
2023-05-10T11:55:41.049Z,49.0883
2023-05-10T11:56:44.302Z,49.0333
2023-05-10T11:57:47.525Z,48.0140
2023-05-10T11:58:50.803Z,48.7251
2023-05-10T11:59:54.065Z,49.1932
2023-05-10T12:00:57.337Z,49.3012
2023-05-10T12:02:00.622Z,49.1267
2023-05-10T12:03:04.063Z,49.2271
2023-05-10T12:04:07.532Z,48.9466
2023-05-10T12:05:11.010Z,48.7923
2023-05-10T12:06:14.292Z,48.7127
2023-05-10T12:07:17.541Z,48.8434
2023-05-10T12:08:20.823Z,48.8974
2023-05-10T12:10:24.041Z,48.0381
2023-05-10T12:11:25.328Z,47.5860
2023-05-10T12:12:28.598Z,47.1426
2023-05-10T12:13:31.870Z,46.7056
2023-05-10T12:14:35.124Z,44.8555
2023-05-10T12:15:38.395Z,44.1737
2023-05-10T12:16:42.067Z,44.2080
2023-05-10T12:17:45.376Z,44.2967
2023-05-10T12:18:48.682Z,44.7215
2023-05-10T12:19:51.918Z,45.1437
2023-05-10T12:20:55.160Z,45.8150
2023-05-10T12:21:58.403Z,45.8064
2023-05-10T12:23:01.640Z,45.4359
2023-05-10T12:24:05.127Z,45.4938
2023-05-10T12:25:08.473Z,46.0212
2023-05-10T12:26:11.746Z,46.4744
2023-05-10T12:27:14.973Z,46.9740
2023-05-10T12:28:18.226Z,47.7660
2023-05-10T12:29:21.457Z,48.7054
2023-05-10T12:30:24.729Z,49.3576
2023-05-10T12:31:28.063Z,49.9438
2023-05-10T12:32:31.404Z,50.5845
2023-05-10T12:33:34.847Z,50.8480
2023-05-10T12:34:38.143Z,50.9763
2023-05-10T12:35:43.090Z,51.1090
2023-05-10T12:36:42.681Z,51.2423
2023-05-10T12:37:45.895Z,51.4476
2023-05-10T12:38:49.202Z,51.7092
2023-05-10T12:39:52.435Z,52.0134
2023-05-10T12:40:55.729Z,52.3986
2023-05-10T12:41:58.928Z,52.7293
2023-05-10T12:43:02.215Z,52.9075
2023-05-10T12:44:03.405Z,53.0779
2023-05-10T12:45:06.657Z,53.2748
2023-05-10T12:46:09.996Z,53.3852